createdAt,value
2019-03-26T00:01:17.367Z,14.80
2019-03-26T00:03:48.047Z,21.17
2019-03-26T00:06:18.917Z,21.93
2019-03-26T00:08:49.273Z,17.07
2019-03-26T00:11:18.445Z,12.03
2019-03-26T00:13:51.154Z,16.87
2019-03-26T00:16:22.098Z,19.52
2019-03-26T00:18:56.974Z,12.33
2019-03-26T00:21:26.361Z,17.10
2019-03-26T00:23:58.317Z,14.98
2019-03-26T00:26:26.887Z,24.32
2019-03-26T00:28:56.358Z,18.73
2019-03-26T00:31:26.500Z,16.62
2019-03-26T00:33:55.023Z,19.00
2019-03-26T00:36:26.528Z,15.23
2019-03-26T00:38:55.733Z,14.23
2019-03-26T00:41:44.738Z,17.90
2019-03-26T00:44:15.290Z,17.60
2019-03-26T00:46:46.756Z,18.77
2019-03-26T00:49:17.624Z,20.85
2019-03-26T00:51:47.380Z,15.23
2019-03-26T00:54:17.167Z,14.43
2019-03-26T00:56:47.084Z,20.45
2019-03-26T00:59:16.414Z,18.05
2019-03-26T01:01:50.763Z,16.55
2019-03-26T01:04:32.185Z,23.60
2019-03-26T01:06:54.552Z,20.95
2019-03-26T01:09:23.239Z,20.00
2019-03-26T01:11:52.656Z,17.15
2019-03-26T01:14:26.166Z,12.25
2019-03-26T01:16:58.159Z,18.40
2019-03-26T01:19:26.920Z,17.55
2019-03-26T01:21:57.169Z,15.43
2019-03-26T01:24:26.598Z,19.70
2019-03-26T01:26:55.142Z,22.27
2019-03-26T01:29:23.892Z,18.20
2019-03-26T01:31:58.349Z,22.85
2019-03-26T01:34:28.454Z,15.20
2019-03-26T01:36:58.781Z,20.95
2019-03-26T01:39:29.157Z,14.15
2019-03-26T01:42:00.422Z,13.98
2019-03-26T01:44:30.634Z,24.55
2019-03-26T01:47:00.903Z,16.85
2019-03-26T01:49:32.030Z,16.10
2019-03-26T01:52:02.026Z,21.17
2019-03-26T01:54:30.543Z,22.90
2019-03-26T01:56:59.013Z,18.87
2019-03-26T01:59:30.275Z,20.50
2019-03-26T02:01:59.044Z,22.87
2019-03-26T02:04:29.023Z,17.77
2019-03-26T02:07:01.091Z,20.52
2019-03-26T02:09:30.173Z,20.33
2019-03-26T02:12:01.896Z,20.57
2019-03-26T02:14:30.412Z,26.68
2019-03-26T02:16:58.897Z,17.67
2019-03-26T02:19:33.451Z,20.17
2019-03-26T02:22:12.185Z,20.57
2019-03-26T02:24:44.468Z,20.82
2019-03-26T02:27:17.773Z,20.37
2019-03-26T02:29:46.292Z,22.22
2019-03-26T02:32:18.006Z,15.60
2019-03-26T02:34:48.006Z,27.27
2019-03-26T02:37:16.595Z,20.30
2019-03-26T02:39:47.873Z,24.10
2019-03-26T02:42:19.658Z,21.90
2019-03-26T02:44:49.367Z,21.65
2019-03-26T02:47:18.617Z,20.72
2019-03-26T02:49:52.364Z,15.95
2019-03-26T02:52:20.864Z,27.48
2019-03-26T02:54:50.954Z,18.45
2019-03-26T02:57:21.021Z,30.90
2019-03-26T02:59:54.530Z,18.23
2019-03-26T03:02:27.508Z,26.57
2019-03-26T03:04:58.061Z,27.30
2019-03-26T03:07:26.525Z,21.12
2019-03-26T03:09:56.952Z,21.60
2019-03-26T03:12:27.547Z,17.37
2019-03-26T03:14:58.448Z,18.37
2019-03-26T03:17:28.531Z,19.42
2019-03-26T03:19:57.215Z,26.65
2019-03-26T03:22:27.436Z,23.22
2019-03-26T03:24:55.951Z,23.83
2019-03-26T03:27:25.709Z,29.40
2019-03-26T03:29:55.799Z,28.27
2019-03-26T03:32:25.766Z,24.67
2019-03-26T03:34:56.910Z,28.07
2019-03-26T03:37:36.231Z,29.55
2019-03-26T03:40:08.790Z,20.10
2019-03-26T03:42:39.344Z,20.90
2019-03-26T03:45:09.513Z,17.32
2019-03-26T03:47:39.006Z,19.30
2019-03-26T03:50:13.109Z,17.70
2019-03-26T03:52:42.299Z,25.52
2019-03-26T03:55:12.100Z,18.62
2019-03-26T03:57:41.495Z,19.60
2019-03-26T04:00:15.711Z,31.67
2019-03-26T04:02:46.589Z,16.85
2019-03-26T04:05:15.597Z,15.60
2019-03-26T04:07:44.983Z,20.57
2019-03-26T04:10:15.063Z,17.10
2019-03-26T04:12:43.589Z,17.37
2019-03-26T04:15:12.115Z,18.30
2019-03-26T04:17:44.149Z,22.77
2019-03-26T04:20:13.971Z,19.25
2019-03-26T04:22:44.121Z,22.62
2019-03-26T04:25:16.701Z,24.33
2019-03-26T04:27:45.969Z,22.90
2019-03-26T04:30:21.149Z,14.10
2019-03-26T04:32:51.169Z,15.25
2019-03-26T04:35:19.627Z,18.63
2019-03-26T04:37:51.950Z,22.10
2019-03-26T04:40:22.608Z,21.23
2019-03-26T04:42:52.861Z,16.73
2019-03-26T04:45:23.291Z,21.73
2019-03-26T04:47:54.235Z,20.85
2019-03-26T04:50:28.444Z,20.97
2019-03-26T04:53:00.699Z,16.60
2019-03-26T04:55:30.433Z,17.50
2019-03-26T04:58:00.426Z,19.02
2019-03-26T05:00:29.090Z,16.40
2019-03-26T05:02:59.807Z,20.23
2019-03-26T05:05:30.825Z,15.30
2019-03-26T05:08:00.148Z,17.75
2019-03-26T05:10:31.797Z,25.12
2019-03-26T05:13:01.963Z,15.20
2019-03-26T05:15:32.498Z,21.57
2019-03-26T05:18:04.183Z,18.23
2019-03-26T05:20:32.952Z,12.35
2019-03-26T05:23:01.853Z,18.12
2019-03-26T05:25:30.381Z,18.80
2019-03-26T05:28:01.461Z,18.85
2019-03-26T05:30:35.660Z,32.17
2019-03-26T05:33:04.720Z,22.30
2019-03-26T05:35:35.353Z,21.95
2019-03-26T05:38:04.945Z,20.90
2019-03-26T05:40:35.007Z,20.68
2019-03-26T05:43:06.429Z,22.58
2019-03-26T05:45:35.395Z,20.02
2019-03-26T05:48:04.804Z,22.00
2019-03-26T05:50:34.206Z,20.37
2019-03-26T05:53:05.054Z,16.90
2019-03-26T05:55:35.316Z,16.90
2019-03-26T05:58:04.548Z,16.60
2019-03-26T06:00:35.597Z,25.55
2019-03-26T06:03:05.528Z,22.82
2019-03-26T06:05:34.052Z,20.60
2019-03-26T06:08:02.695Z,24.80
2019-03-26T06:10:31.207Z,19.60
2019-03-26T06:13:01.356Z,18.57
2019-03-26T06:15:33.088Z,23.12
2019-03-26T06:18:01.674Z,17.87
2019-03-26T06:20:31.100Z,20.02
2019-03-26T06:23:02.073Z,32.20
2019-03-26T06:25:32.779Z,26.07
2019-03-26T06:28:01.355Z,21.48
2019-03-26T06:30:29.839Z,18.95
2019-03-26T06:33:03.135Z,19.65
2019-03-26T06:35:31.425Z,16.17
2019-03-26T06:38:00.100Z,18.65
2019-03-26T06:40:28.584Z,24.70
2019-03-26T06:42:57.075Z,20.62
2019-03-26T06:45:30.651Z,18.40
2019-03-26T06:47:59.280Z,20.50
2019-03-26T06:50:27.776Z,19.73
2019-03-26T06:52:56.280Z,13.50
2019-03-26T06:55:26.436Z,20.68
2019-03-26T06:57:54.995Z,19.82
2019-03-26T07:00:38.551Z,16.00
2019-03-26T07:03:07.611Z,16.07
2019-03-26T07:05:36.059Z,24.43
2019-03-26T07:08:05.892Z,17.48
2019-03-26T07:10:35.216Z,19.60
2019-03-26T07:13:04.763Z,11.48
2019-03-26T07:15:33.617Z,21.80
2019-03-26T07:18:03.936Z,19.60
2019-03-26T07:20:32.795Z,13.83
2019-03-26T07:23:01.398Z,28.92
2019-03-26T07:25:33.675Z,20.23
2019-03-26T07:28:07.409Z,15.95
2019-03-26T07:30:39.941Z,17.82
2019-03-26T07:33:10.107Z,24.70
2019-03-26T07:35:40.977Z,19.48
2019-03-26T07:38:09.630Z,20.05
2019-03-26T07:40:41.046Z,19.55
2019-03-26T07:43:10.176Z,25.90
2019-03-26T07:45:38.719Z,19.32
2019-03-26T07:48:10.359Z,18.17
2019-03-26T07:50:39.842Z,19.57
2019-03-26T07:53:09.498Z,26.75
2019-03-26T07:55:39.954Z,28.85
2019-03-26T07:58:08.404Z,23.18
2019-03-26T08:00:41.272Z,21.52
2019-03-26T08:03:09.720Z,23.54
2019-03-26T08:05:39.989Z,22.17
2019-03-26T08:08:09.839Z,17.92
2019-03-26T08:10:38.589Z,20.60
2019-03-26T08:13:07.667Z,17.55
2019-03-26T08:15:40.099Z,20.40
2019-03-26T08:18:08.599Z,25.23
2019-03-26T08:20:37.061Z,27.82
2019-03-26T08:23:05.783Z,19.75
2019-03-26T08:25:34.226Z,23.65
2019-03-26T08:28:05.087Z,23.05
2019-03-26T08:30:34.251Z,21.45
2019-03-26T08:33:02.773Z,22.20
2019-03-26T08:35:31.293Z,18.77
2019-03-26T08:38:12.605Z,13.83
2019-03-26T08:40:35.196Z,17.62
2019-03-26T08:43:03.713Z,15.58
2019-03-26T08:45:32.265Z,18.98
2019-03-26T08:48:00.904Z,23.60
2019-03-26T08:50:29.355Z,17.23
2019-03-26T08:52:57.840Z,11.80
2019-03-26T08:55:27.990Z,20.95
2019-03-26T08:58:03.664Z,15.28
2019-03-26T09:00:32.346Z,16.27
2019-03-26T09:03:04.192Z,16.90
2019-03-26T09:05:34.957Z,15.03
2019-03-26T09:08:04.947Z,16.48
2019-03-26T09:10:33.412Z,21.15
2019-03-26T09:13:03.127Z,22.40
2019-03-26T09:15:32.632Z,20.65
2019-03-26T09:18:01.696Z,18.45
2019-03-26T09:20:31.038Z,18.50
2019-03-26T09:23:07.604Z,14.33
2019-03-26T09:25:35.822Z,20.10
2019-03-26T09:28:09.423Z,14.78
2019-03-26T09:33:08.947Z,20.43
2019-03-26T09:35:37.393Z,19.20
2019-03-26T09:38:05.996Z,25.68
2019-03-26T09:40:34.435Z,17.70
2019-03-26T09:43:04.408Z,17.60
2019-03-26T09:45:34.470Z,23.70
2019-03-26T09:48:03.077Z,15.72
2019-03-26T09:50:33.544Z,22.25
2019-03-26T09:53:03.102Z,14.65
2019-03-26T09:55:31.599Z,17.35
2019-03-26T09:58:00.087Z,16.17
2019-03-26T10:00:28.627Z,16.80
2019-03-26T10:02:58.680Z,16.05
2019-03-26T10:05:29.423Z,18.23
2019-03-26T10:08:01.389Z,16.87
2019-03-26T10:10:35.804Z,15.80
2019-03-26T10:13:04.900Z,15.18
2019-03-26T10:15:34.972Z,13.50
2019-03-26T10:18:06.223Z,18.60
2019-03-26T10:20:35.828Z,12.45
2019-03-26T10:23:07.758Z,18.30
2019-03-26T10:25:38.030Z,16.12
2019-03-26T10:28:06.883Z,13.32
2019-03-26T10:30:39.820Z,11.60
2019-03-26T10:33:09.758Z,10.40
2019-03-26T10:35:38.383Z,14.68
2019-03-26T10:38:07.436Z,11.08
2019-03-26T10:40:42.845Z,20.80
2019-03-26T10:43:13.547Z,19.00
2019-03-26T10:45:43.494Z,19.12
2019-03-26T10:48:11.956Z,10.35
2019-03-26T10:50:40.442Z,13.85
2019-03-26T10:53:10.431Z,20.55
2019-03-26T10:55:39.062Z,12.58
2019-03-26T10:58:07.676Z,14.13
2019-03-26T11:00:36.265Z,18.63
2019-03-26T11:03:05.026Z,11.78
2019-03-26T11:05:33.947Z,13.03
2019-03-26T11:08:04.598Z,12.70
2019-03-26T11:10:34.771Z,10.40
2019-03-26T11:13:04.879Z,14.68
2019-03-26T11:15:33.324Z,11.95
2019-03-26T11:18:03.374Z,13.50
2019-03-26T11:20:33.399Z,16.32
2019-03-26T11:23:01.950Z,14.15
2019-03-26T11:25:30.405Z,17.90
2019-03-26T11:28:04.101Z,16.12
2019-03-26T11:33:03.032Z,17.87
2019-03-26T11:35:31.585Z,14.63
2019-03-26T11:38:00.287Z,15.63
2019-03-26T11:40:28.740Z,14.95
2019-03-26T11:42:58.778Z,11.28
2019-03-26T11:45:28.853Z,17.17
2019-03-26T11:48:04.520Z,20.23
2019-03-26T11:50:34.811Z,22.73
2019-03-26T11:53:03.398Z,18.27
2019-03-26T11:55:31.859Z,18.27
2019-03-26T11:58:00.336Z,20.00
2019-03-26T12:00:32.062Z,12.05
2019-03-26T12:03:00.595Z,10.63
2019-03-26T12:05:29.042Z,17.92
2019-03-26T12:07:59.029Z,15.63
2019-03-26T12:10:28.697Z,13.98
2019-03-26T12:12:58.248Z,13.03
2019-03-26T12:15:28.121Z,10.70
2019-03-26T12:17:57.527Z,13.70
2019-03-26T12:20:27.042Z,12.25
2019-03-26T12:22:56.668Z,17.48
2019-03-26T12:25:26.390Z,13.18
2019-03-26T12:27:57.395Z,15.48
2019-03-26T12:30:34.295Z,15.72
2019-03-26T12:33:05.147Z,10.75
2019-03-26T12:35:36.469Z,12.35
2019-03-26T12:38:11.945Z,15.13
2019-03-26T12:40:42.880Z,15.83
2019-03-26T12:43:11.340Z,11.05
2019-03-26T12:45:39.825Z,14.65
2019-03-26T12:48:08.363Z,12.07
2019-03-26T12:50:36.904Z,12.03
2019-03-26T12:53:07.452Z,15.65
2019-03-26T12:55:35.977Z,14.87
2019-03-26T12:58:06.288Z,13.78
2019-03-26T13:00:36.852Z,15.23
2019-03-26T13:03:05.372Z,18.52
2019-03-26T13:05:33.820Z,16.40
2019-03-26T13:08:02.377Z,19.60
2019-03-26T13:10:30.845Z,13.55
2019-03-26T13:12:59.362Z,23.35
2019-03-26T13:15:33.730Z,18.48
2019-03-26T13:18:04.031Z,13.05
2019-03-26T13:20:33.288Z,24.63
2019-03-26T13:23:02.005Z,13.00
2019-03-26T13:25:30.760Z,22.47
2019-03-26T13:27:59.503Z,18.15
2019-03-26T13:30:30.343Z,13.70
2019-03-26T13:32:58.807Z,20.27
2019-03-26T13:35:27.363Z,12.68
2019-03-26T13:37:58.720Z,16.87
2019-03-26T13:40:27.921Z,16.60
2019-03-26T13:42:56.708Z,20.15
2019-03-26T13:45:25.223Z,22.32
2019-03-26T13:47:56.489Z,15.48
2019-03-26T13:50:24.976Z,14.35
2019-03-26T13:52:53.438Z,14.70
2019-03-26T13:55:21.894Z,19.90
2019-03-26T13:57:50.582Z,21.57
2019-03-26T14:00:33.731Z,17.30
2019-03-26T14:03:02.348Z,16.00
2019-03-26T14:05:30.879Z,12.82
2019-03-26T14:07:59.358Z,14.55
2019-03-26T14:10:40.082Z,16.35
2019-03-26T14:12:58.194Z,11.95
2019-03-26T14:15:26.842Z,11.75
2019-03-26T14:17:59.519Z,20.37
2019-03-26T14:20:27.987Z,18.13
2019-03-26T14:22:56.549Z,16.45
2019-03-26T14:25:25.370Z,14.03
2019-03-26T14:27:53.960Z,13.35
2019-03-26T14:30:28.201Z,17.93
2019-03-26T14:32:56.793Z,13.30
2019-03-26T14:35:25.243Z,14.03
2019-03-26T14:37:53.708Z,11.35
2019-03-26T14:40:22.264Z,11.05
2019-03-26T14:42:52.919Z,18.62
2019-03-26T14:45:21.361Z,14.73
2019-03-26T14:47:49.840Z,13.38
2019-03-26T14:50:18.583Z,15.83
2019-03-26T14:52:48.596Z,15.03
2019-03-26T14:55:18.633Z,16.63
2019-03-26T14:57:47.099Z,18.40
2019-03-26T15:00:18.701Z,20.62
2019-03-26T15:02:49.199Z,21.25
2019-03-26T15:05:17.432Z,18.27
2019-03-26T15:07:49.728Z,23.15
2019-03-26T15:10:23.440Z,22.87
2019-03-26T15:12:52.903Z,27.60
2019-03-26T15:15:25.782Z,21.02
2019-03-26T15:17:54.267Z,17.47
2019-03-26T15:20:22.879Z,23.47
2019-03-26T15:22:54.107Z,20.57
2019-03-26T15:25:22.831Z,21.17
2019-03-26T15:27:51.355Z,27.98
2019-03-26T15:30:19.980Z,21.85
2019-03-26T15:32:48.526Z,23.12
2019-03-26T15:35:17.073Z,25.23
2019-03-26T15:37:45.518Z,24.43
2019-03-26T15:40:19.868Z,21.35
2019-03-26T15:42:48.321Z,24.82
2019-03-26T15:45:17.845Z,17.50
2019-03-26T15:47:49.746Z,25.35
2019-03-26T15:50:24.326Z,26.63
2019-03-26T15:52:55.161Z,22.25
2019-03-26T15:55:24.077Z,22.00
2019-03-26T15:57:59.761Z,22.20
2019-03-26T16:00:33.259Z,23.60
2019-03-26T16:03:02.122Z,23.62
2019-03-26T16:05:31.937Z,32.80
2019-03-26T16:08:00.713Z,20.72
2019-03-26T16:10:31.057Z,24.12
2019-03-26T16:12:59.763Z,25.62
2019-03-26T16:15:28.410Z,29.90
2019-03-26T16:17:57.016Z,31.90
2019-03-26T16:20:25.925Z,31.15
2019-03-26T16:22:57.375Z,23.18
2019-03-26T16:25:27.957Z,26.42
2019-03-26T16:27:58.489Z,25.48
2019-03-26T16:30:27.180Z,24.10
2019-03-26T16:32:59.439Z,23.20
2019-03-26T16:35:28.275Z,22.15
2019-03-26T16:37:58.019Z,28.35
2019-03-26T16:40:31.098Z,28.85
2019-03-26T16:43:01.236Z,23.33
2019-03-26T16:45:29.854Z,25.23
2019-03-26T16:48:01.124Z,21.10
2019-03-26T16:50:30.431Z,20.32
2019-03-26T16:52:58.895Z,29.35
2019-03-26T16:55:28.033Z,26.93
2019-03-26T16:58:02.995Z,25.97
2019-03-26T17:00:33.072Z,24.18
2019-03-26T17:03:01.659Z,21.05
2019-03-26T17:05:30.403Z,20.43
2019-03-26T17:08:00.493Z,29.05
2019-03-26T17:10:29.181Z,24.73
2019-03-26T17:12:58.812Z,26.68
2019-03-26T17:15:27.518Z,29.90
2019-03-26T17:17:57.360Z,25.48
2019-03-26T17:20:25.863Z,20.23
2019-03-26T17:22:55.834Z,29.52
2019-03-26T17:25:24.958Z,24.35
2019-03-26T17:27:55.140Z,20.40
2019-03-26T17:30:23.737Z,21.52
2019-03-26T17:32:52.208Z,28.98
2019-03-26T17:35:20.763Z,28.20
2019-03-26T17:37:59.416Z,22.17
2019-03-26T17:40:21.712Z,26.17
2019-03-26T17:42:51.307Z,29.45
2019-03-26T17:45:19.825Z,26.50
2019-03-26T17:47:48.728Z,19.73
2019-03-26T17:50:23.801Z,20.23
2019-03-26T17:52:52.321Z,31.90
2019-03-26T17:55:23.886Z,24.75
2019-03-26T17:57:52.355Z,26.85
2019-03-26T18:00:29.165Z,20.83
2019-03-26T18:02:57.739Z,31.30
2019-03-26T18:05:28.130Z,26.42
2019-03-26T18:07:56.961Z,29.40
2019-03-26T18:10:26.964Z,26.50
2019-03-26T18:12:55.506Z,25.80
2019-03-26T18:15:24.090Z,32.63
2019-03-26T18:17:52.652Z,25.77
2019-03-26T18:20:32.010Z,22.50
2019-03-26T18:22:51.380Z,24.60
2019-03-26T18:25:19.863Z,26.00
2019-03-26T18:27:48.325Z,28.23
2019-03-26T18:30:19.728Z,24.15
2019-03-26T18:32:48.200Z,28.75
2019-03-26T18:35:16.783Z,23.97
2019-03-26T18:37:45.319Z,26.00
2019-03-26T18:40:15.006Z,31.07
2019-03-26T18:42:45.248Z,24.87
2019-03-26T18:45:17.220Z,31.87
2019-03-26T18:47:46.571Z,38.00
2019-03-26T18:50:15.670Z,25.32
2019-03-26T18:52:44.133Z,22.82
2019-03-26T18:55:12.837Z,25.47
2019-03-26T18:57:42.200Z,25.72
2019-03-26T19:00:13.412Z,31.85
2019-03-26T19:02:44.123Z,25.32
2019-03-26T19:05:14.208Z,32.20
2019-03-26T19:07:44.344Z,31.17
2019-03-26T19:10:30.503Z,41.53
2019-03-26T19:13:01.299Z,30.68
2019-03-26T19:15:29.973Z,28.38
2019-03-26T19:17:59.079Z,28.15
2019-03-26T19:20:27.676Z,23.95
2019-03-26T19:22:58.645Z,27.05
2019-03-26T19:25:28.671Z,27.30
2019-03-26T19:27:59.475Z,22.50
2019-03-26T19:30:28.022Z,36.90
2019-03-26T19:32:57.864Z,28.65
2019-03-26T19:35:28.087Z,28.57
2019-03-26T19:37:59.459Z,30.25
2019-03-26T19:40:31.599Z,32.65
2019-03-26T19:43:10.054Z,27.37
2019-03-26T19:45:30.338Z,33.38
2019-03-26T19:47:59.271Z,37.40
2019-03-26T19:50:28.374Z,31.93
2019-03-26T19:52:56.821Z,29.42
2019-03-26T19:55:29.090Z,34.80
2019-03-26T19:57:57.318Z,29.02
2019-03-26T20:00:27.626Z,34.45
2019-03-26T20:02:56.493Z,32.20
2019-03-26T20:05:24.984Z,43.48
2019-03-26T20:07:53.500Z,30.48
2019-03-26T20:10:22.297Z,31.07
2019-03-26T20:12:51.065Z,28.60
2019-03-26T20:15:20.029Z,26.82
2019-03-26T20:17:49.354Z,26.60
2019-03-26T20:20:18.790Z,27.10
2019-03-26T20:22:47.248Z,29.00
2019-03-26T20:25:16.170Z,37.53
2019-03-26T20:27:44.715Z,27.75
2019-03-26T20:30:13.694Z,22.05
2019-03-26T20:32:42.274Z,27.85
2019-03-26T20:35:13.000Z,28.05
2019-03-26T20:37:41.463Z,30.72
2019-03-26T20:40:12.441Z,31.27
2019-03-26T20:42:40.911Z,28.85
2019-03-26T20:45:14.205Z,30.52
2019-03-26T20:47:42.651Z,30.75
2019-03-26T20:50:13.270Z,38.25
2019-03-26T20:52:41.843Z,23.22
2019-03-26T20:55:14.542Z,31.17
2019-03-26T20:57:43.934Z,29.80
2019-03-26T21:00:16.199Z,32.50
2019-03-26T21:02:46.395Z,38.83
2019-03-26T21:05:14.947Z,27.02
2019-03-26T21:07:47.675Z,32.73
2019-03-26T21:10:15.091Z,30.57
2019-03-26T21:12:43.551Z,29.65
2019-03-26T21:15:14.096Z,27.07
2019-03-26T21:17:42.667Z,29.30
2019-03-26T21:20:11.556Z,36.10
2019-03-26T21:22:39.982Z,37.17
2019-03-26T21:25:09.399Z,34.25
2019-03-26T21:27:38.243Z,28.50
2019-03-26T21:30:15.602Z,22.90
2019-03-26T21:32:42.157Z,29.52
2019-03-26T21:35:12.760Z,23.83
2019-03-26T21:37:42.534Z,33.98
2019-03-26T21:40:13.073Z,26.83
2019-03-26T21:42:41.659Z,26.35
2019-03-26T21:45:12.410Z,28.17
2019-03-26T21:47:41.660Z,31.65
2019-03-26T21:50:11.528Z,22.73
2019-03-26T21:52:47.104Z,20.30
2019-03-26T21:55:16.927Z,33.00
2019-03-26T21:57:45.440Z,30.97
2019-03-26T22:00:14.173Z,26.27
2019-03-26T22:02:42.654Z,21.82
2019-03-26T22:05:12.259Z,33.80
2019-03-26T22:07:40.818Z,26.33
2019-03-26T22:10:10.793Z,28.12
2019-03-26T22:12:39.394Z,20.88
2019-03-26T22:15:11.381Z,27.35
2019-03-26T22:17:41.568Z,29.48
2019-03-26T22:20:12.811Z,35.30
2019-03-26T22:22:42.547Z,21.37
2019-03-26T22:25:12.227Z,28.27
2019-03-26T22:27:40.711Z,28.80
2019-03-26T22:30:10.711Z,32.70
2019-03-26T22:32:39.704Z,27.15
2019-03-26T22:35:08.924Z,24.55
2019-03-26T22:37:37.436Z,30.05
2019-03-26T22:40:08.309Z,23.40
2019-03-26T22:42:41.120Z,25.60
2019-03-26T22:45:11.720Z,23.70
2019-03-26T22:47:40.692Z,23.38
2019-03-26T22:50:13.151Z,23.95
2019-03-26T22:52:48.613Z,32.00
2019-03-26T22:55:18.125Z,32.93
2019-03-26T22:57:49.102Z,21.05
2019-03-26T23:00:19.894Z,22.82
2019-03-26T23:02:48.500Z,26.95
2019-03-26T23:05:17.492Z,18.20
2019-03-26T23:07:46.021Z,22.98
2019-03-26T23:10:16.258Z,23.32
2019-03-26T23:12:46.058Z,33.58
2019-03-26T23:15:20.256Z,27.73
2019-03-26T23:17:51.605Z,25.77
2019-03-26T23:20:20.259Z,22.37
2019-03-26T23:22:51.417Z,36.85
2019-03-26T23:25:20.630Z,26.07
2019-03-26T23:27:49.183Z,26.23
2019-03-26T23:30:18.890Z,27.90
2019-03-26T23:32:47.419Z,26.33
2019-03-26T23:35:16.096Z,32.75
2019-03-26T23:37:44.963Z,28.87
2019-03-26T23:40:14.435Z,24.60
2019-03-26T23:42:42.956Z,31.68
2019-03-26T23:45:11.854Z,31.77
2019-03-26T23:47:40.476Z,31.42
2019-03-26T23:50:10.161Z,30.12
2019-03-26T23:52:38.625Z,31.82
2019-03-26T23:55:07.835Z,31.93
2019-03-26T23:57:37.551Z,30.65
